createdAt,value
2018-12-27T00:00:08.324Z,0.3
2018-12-27T00:01:05.990Z,0.29
2018-12-27T00:02:05.570Z,0.29
2018-12-27T00:03:05.535Z,0.3
2018-12-27T00:04:05.550Z,0.26
2018-12-27T00:05:05.558Z,0.29
2018-12-27T00:06:06.847Z,0.3
2018-12-27T00:07:06.073Z,0.32
2018-12-27T00:08:05.874Z,0.3
2018-12-27T00:09:05.539Z,0.33
2018-12-27T00:10:05.526Z,0.3
2018-12-27T00:11:05.518Z,0.32
2018-12-27T00:12:05.662Z,0.32
2018-12-27T00:13:05.512Z,0.34
2018-12-27T00:14:05.534Z,0.37
2018-12-27T00:15:05.547Z,0.37
2018-12-27T00:16:05.705Z,0.38
2018-12-27T00:17:05.750Z,0.4
2018-12-27T00:18:05.784Z,0.41
2018-12-27T00:19:05.703Z,0.4
2018-12-27T00:20:05.591Z,0.41
2018-12-27T00:21:05.574Z,0.41
2018-12-27T00:22:05.747Z,0.43
2018-12-27T00:23:05.532Z,0.43
2018-12-27T00:24:05.947Z,0.43
2018-12-27T00:25:05.498Z,0.43
2018-12-27T00:26:05.710Z,0.41
2018-12-27T00:27:05.555Z,0.41
2018-12-27T00:28:06.308Z,0.38
2018-12-27T00:29:05.592Z,0.4
2018-12-27T00:30:05.530Z,0.4
2018-12-27T00:31:05.504Z,0.41
2018-12-27T00:32:05.535Z,0.43
2018-12-27T00:33:05.821Z,0.44
2018-12-27T00:34:06.002Z,0.44
2018-12-27T00:35:05.642Z,0.47
2018-12-27T00:36:05.582Z,0.44
2018-12-27T00:37:05.712Z,0.43
2018-12-27T00:38:05.689Z,0.41
2018-12-27T00:39:05.621Z,0.38
2018-12-27T00:40:05.894Z,0.36
2018-12-27T00:41:05.611Z,0.34
2018-12-27T00:42:05.653Z,0.32
2018-12-27T00:43:05.757Z,0.3
2018-12-27T00:44:07.778Z,0.3
2018-12-27T00:45:06.024Z,0.32
2018-12-27T00:46:05.719Z,0.3
2018-12-27T00:47:05.539Z,0.27
2018-12-27T00:48:05.657Z,0.26
2018-12-27T00:49:05.523Z,0.29
2018-12-27T00:50:05.700Z,0.26
2018-12-27T00:51:05.677Z,0.22
2018-12-27T00:52:05.455Z,0.22
2018-12-27T00:53:05.555Z,0.22
2018-12-27T00:54:05.622Z,0.23
2018-12-27T00:55:05.530Z,0.22
2018-12-27T00:56:05.533Z,0.23
2018-12-27T00:57:05.557Z,0.2
2018-12-27T00:58:05.566Z,0.19
2018-12-27T00:59:05.524Z,0.16
2018-12-27T01:00:05.515Z,0.12
2018-12-27T01:01:05.671Z,0.12
2018-12-27T01:02:05.767Z,0.1
2018-12-27T01:03:11.659Z,0.12
2018-12-27T01:04:05.857Z,0.15
2018-12-27T01:05:05.577Z,0.15
2018-12-27T01:06:05.721Z,0.13
2018-12-27T01:07:05.719Z,0.15
2018-12-27T01:08:05.450Z,0.13
2018-12-27T01:09:05.571Z,0.1
2018-12-27T01:10:05.463Z,0.12
2018-12-27T01:11:05.688Z,0.09
2018-12-27T01:12:05.461Z,0.06
2018-12-27T01:13:05.468Z,0.03
2018-12-27T01:14:05.771Z,0.05
2018-12-27T01:15:05.686Z,0.08
2018-12-27T01:16:05.491Z,0.02
2018-12-27T01:17:05.433Z,0.05
2018-12-27T01:18:05.510Z,0.06
2018-12-27T01:19:05.612Z,0.09
2018-12-27T01:20:05.589Z,0.09
2018-12-27T01:21:05.513Z,0.12
2018-12-27T01:22:05.463Z,0.13
2018-12-27T01:23:06.302Z,0.15
2018-12-27T01:24:05.504Z,0.16
2018-12-27T01:25:05.693Z,0.19
2018-12-27T01:26:05.624Z,0.18
2018-12-27T01:27:05.566Z,0.19
2018-12-27T01:28:05.592Z,0.19
2018-12-27T01:29:05.487Z,0.22
2018-12-27T01:30:06.302Z,0.18
2018-12-27T01:31:05.731Z,0.19
2018-12-27T01:32:05.665Z,0.23
2018-12-27T01:33:05.491Z,0.23
2018-12-27T01:34:05.471Z,0.22
2018-12-27T01:35:05.420Z,0.23
2018-12-27T01:36:05.559Z,0.23
2018-12-27T01:37:05.462Z,0.23
2018-12-27T01:38:05.479Z,0.25
2018-12-27T01:39:05.454Z,0.25
2018-12-27T01:40:05.460Z,0.2
2018-12-27T01:41:05.414Z,0.26
2018-12-27T01:42:05.484Z,0.26
2018-12-27T01:43:05.485Z,0.26
2018-12-27T01:44:05.720Z,0.25
2018-12-27T01:45:05.405Z,0.22
2018-12-27T01:46:05.477Z,0.19
2018-12-27T01:47:05.389Z,0.23
2018-12-27T01:48:05.435Z,0.23
2018-12-27T01:49:05.478Z,0.22
2018-12-27T01:50:05.732Z,0.23
2018-12-27T01:51:05.436Z,0.22
2018-12-27T01:52:05.557Z,0.25
2018-12-27T01:53:05.389Z,0.29
2018-12-27T01:54:05.556Z,0.25
2018-12-27T01:55:05.407Z,0.25
2018-12-27T01:56:05.497Z,0.23
2018-12-27T01:57:05.485Z,0.22
2018-12-27T01:58:05.489Z,0.23
2018-12-27T01:59:05.527Z,0.18
2018-12-27T02:00:05.617Z,0.16
2018-12-27T02:01:05.964Z,0.15
2018-12-27T02:02:05.372Z,0.12
2018-12-27T02:03:05.387Z,0.15
2018-12-27T02:04:05.888Z,0.15
2018-12-27T02:05:05.726Z,0.18
2018-12-27T02:06:05.418Z,0.16
2018-12-27T02:07:05.508Z,0.19
2018-12-27T02:08:06.229Z,0.15
2018-12-27T02:09:05.609Z,0.16
2018-12-27T02:10:05.859Z,0.16
2018-12-27T02:11:06.021Z,0.13
2018-12-27T02:12:05.612Z,0.16
2018-12-27T02:13:05.478Z,0.16
2018-12-27T02:14:05.745Z,0.22
2018-12-27T02:15:05.620Z,0.2
2018-12-27T02:16:05.430Z,0.25
2018-12-27T02:17:05.415Z,0.25
2018-12-27T02:18:05.586Z,0.22
2018-12-27T02:19:05.595Z,0.22
2018-12-27T02:20:05.471Z,0.22
2018-12-27T02:21:05.772Z,0.23
2018-12-27T02:22:05.549Z,0.25
2018-12-27T02:23:06.209Z,0.25
2018-12-27T02:24:05.596Z,0.25
2018-12-27T02:25:05.476Z,0.27
2018-12-27T02:26:05.409Z,0.26
2018-12-27T02:27:05.858Z,0.29
2018-12-27T02:28:05.436Z,0.29
2018-12-27T02:29:05.599Z,0.29
2018-12-27T02:30:05.806Z,0.3
2018-12-27T02:31:05.747Z,0.27
2018-12-27T02:32:05.357Z,0.29
2018-12-27T02:33:06.182Z,0.29
2018-12-27T02:34:05.535Z,0.29
2018-12-27T02:35:05.355Z,0.29
2018-12-27T02:36:05.622Z,0.27
2018-12-27T02:37:05.702Z,0.26
2018-12-27T02:38:05.380Z,0.23
2018-12-27T02:39:05.350Z,0.25
2018-12-27T02:40:06.160Z,0.23
2018-12-27T02:41:05.450Z,0.19
2018-12-27T02:42:05.762Z,0.25
2018-12-27T02:43:05.412Z,0.2
2018-12-27T02:44:05.777Z,0.22
2018-12-27T02:45:06.166Z,0.22
2018-12-27T02:46:06.194Z,0.26
2018-12-27T02:47:05.422Z,0.26
2018-12-27T02:48:05.390Z,0.23
2018-12-27T02:49:05.398Z,0.22
2018-12-27T02:50:05.498Z,0.26
2018-12-27T02:51:05.487Z,0.25
2018-12-27T02:52:05.318Z,0.26
2018-12-27T02:53:05.455Z,0.26
2018-12-27T02:54:05.535Z,0.27
2018-12-27T02:55:05.460Z,0.27
2018-12-27T02:56:05.333Z,0.27
2018-12-27T02:57:05.391Z,0.26
2018-12-27T02:58:05.562Z,0.29
2018-12-27T02:59:05.824Z,0.22
2018-12-27T03:00:05.355Z,0.18
2018-12-27T03:01:05.374Z,0.18
2018-12-27T03:02:05.820Z,0.19
2018-12-27T03:03:05.556Z,0.19
2018-12-27T03:04:05.626Z,0.2
2018-12-27T03:05:05.292Z,0.22
2018-12-27T03:06:05.680Z,0.22
2018-12-27T03:07:05.358Z,0.18
2018-12-27T03:08:05.502Z,0.18
2018-12-27T03:09:05.539Z,0.12
2018-12-27T03:10:05.669Z,0.06
2018-12-27T03:11:05.638Z,0.02
2018-12-27T03:12:05.466Z,0.01
2018-12-27T03:13:05.844Z,0.02
2018-12-27T03:14:05.772Z,-0.09
2018-12-27T03:15:06.159Z,-0.19
2018-12-27T03:16:05.424Z,-0.19
2018-12-27T03:17:05.316Z,-0.14
2018-12-27T03:18:05.464Z,-0.15
2018-12-27T03:19:05.476Z,-0.12
2018-12-27T03:20:05.342Z,-0.11
2018-12-27T03:21:05.596Z,-0.11
2018-12-27T03:22:05.301Z,-0.14
2018-12-27T03:23:05.301Z,-0.08
2018-12-27T03:24:05.360Z,-0.08
2018-12-27T03:25:05.324Z,-0.21
2018-12-27T03:26:05.312Z,-0.18
2018-12-27T03:27:05.606Z,-0.11
2018-12-27T03:28:05.394Z,-0.12
2018-12-27T03:29:05.251Z,-0.22
2018-12-27T03:30:05.309Z,-0.12
2018-12-27T03:31:05.633Z,-0.14
2018-12-27T03:32:05.517Z,-0.09
2018-12-27T03:33:05.328Z,-0.09
2018-12-27T03:34:05.294Z,-0.05
2018-12-27T03:35:05.329Z,-0.07
2018-12-27T03:36:05.291Z,-0.07
2018-12-27T03:37:05.274Z,-0.04
2018-12-27T03:38:05.361Z,-0.05
2018-12-27T03:39:05.574Z,-0.02
2018-12-27T03:40:05.283Z,0.01
2018-12-27T03:41:05.495Z,-0.01
2018-12-27T03:42:05.373Z,0.02
2018-12-27T03:43:05.437Z,0.03
2018-12-27T03:44:05.325Z,0.09
2018-12-27T03:45:05.729Z,0.09
2018-12-27T03:46:05.693Z,0.1
2018-12-27T03:47:05.826Z,0.13
2018-12-27T03:48:05.460Z,0.16
2018-12-27T03:49:05.591Z,0.15
2018-12-27T03:50:05.478Z,0.16
2018-12-27T03:51:05.231Z,0.18
2018-12-27T03:52:05.569Z,0.18
2018-12-27T03:53:05.672Z,0.03
2018-12-27T03:54:05.665Z,0.06
2018-12-27T03:55:05.260Z,0.1
2018-12-27T03:56:05.551Z,0.1
2018-12-27T03:57:05.464Z,0.1
2018-12-27T03:58:05.352Z,0.13
2018-12-27T03:59:05.236Z,0.16
2018-12-27T04:00:06.064Z,0.13
2018-12-27T04:01:05.486Z,0.18
2018-12-27T04:02:05.605Z,0.18
2018-12-27T04:03:05.447Z,0.1
2018-12-27T04:04:05.308Z,0.09
2018-12-27T04:05:05.652Z,0.08
2018-12-27T04:06:05.422Z,0.12
2018-12-27T04:07:05.446Z,0.13
2018-12-27T04:08:05.468Z,0.15
2018-12-27T04:09:05.276Z,0.16
2018-12-27T04:10:05.521Z,0.19
2018-12-27T04:11:05.411Z,0.19
2018-12-27T04:12:05.410Z,0.16
2018-12-27T04:13:05.948Z,0.19
2018-12-27T04:14:05.429Z,0.19
2018-12-27T04:15:05.213Z,0.22
2018-12-27T04:16:05.220Z,0.22
2018-12-27T04:17:05.310Z,0.23
2018-12-27T04:18:05.217Z,0.2
2018-12-27T04:19:05.272Z,0.26
2018-12-27T04:20:05.307Z,0.26
2018-12-27T04:21:05.316Z,0.26
2018-12-27T04:22:05.525Z,0.26
2018-12-27T04:23:05.220Z,0.3
2018-12-27T04:24:05.367Z,0.32
2018-12-27T04:25:06.018Z,0.3
2018-12-27T04:26:05.248Z,0.32
2018-12-27T04:27:05.395Z,0.34
2018-12-27T04:28:05.259Z,0.32
2018-12-27T04:29:05.511Z,0.27
2018-12-27T04:30:05.625Z,0.32
2018-12-27T04:31:06.035Z,0.3
2018-12-27T04:32:06.028Z,0.27
2018-12-27T04:33:05.336Z,0.25
2018-12-27T04:34:10.012Z,0.26
2018-12-27T04:35:05.264Z,0.23
2018-12-27T04:36:05.176Z,0.25
2018-12-27T04:37:05.266Z,0.25
2018-12-27T04:38:05.649Z,0.26
2018-12-27T04:39:05.580Z,0.26
2018-12-27T04:40:05.262Z,0.26
2018-12-27T04:41:05.989Z,0.23
2018-12-27T04:42:05.462Z,0.23
2018-12-27T04:43:05.316Z,0.22
2018-12-27T04:44:05.164Z,0.22
2018-12-27T04:45:05.319Z,0.2
2018-12-27T04:46:05.411Z,0.18
2018-12-27T04:47:05.376Z,0.19
2018-12-27T04:48:05.382Z,0.16
2018-12-27T04:49:05.614Z,0.13
2018-12-27T04:50:05.248Z,0.18
2018-12-27T04:51:05.192Z,0.2
2018-12-27T04:52:05.363Z,0.19
2018-12-27T04:53:05.680Z,0.19
2018-12-27T04:54:05.137Z,0.15
2018-12-27T04:55:05.117Z,0.15
2018-12-27T04:56:05.311Z,0.13
2018-12-27T04:57:05.307Z,0.13
2018-12-27T04:58:05.161Z,0.13
2018-12-27T04:59:05.169Z,0.12
2018-12-27T05:00:06.018Z,0.15
2018-12-27T05:01:05.162Z,0.19
2018-12-27T05:02:05.124Z,0.18
2018-12-27T05:03:05.150Z,0.16
2018-12-27T05:04:05.248Z,0.22
2018-12-27T05:05:05.146Z,0.19
2018-12-27T05:06:05.459Z,0.2
2018-12-27T05:07:05.210Z,0.19
2018-12-27T05:08:05.167Z,0.22
2018-12-27T05:09:05.228Z,0.19
2018-12-27T05:10:05.165Z,0.18
2018-12-27T05:11:05.275Z,0.16
2018-12-27T05:12:05.132Z,0.15
2018-12-27T05:13:05.473Z,0.16
2018-12-27T05:14:05.173Z,0.18
2018-12-27T05:15:05.148Z,0.18
2018-12-27T05:16:05.137Z,0.22
2018-12-27T05:17:05.193Z,0.23
2018-12-27T05:18:05.122Z,0.23
2018-12-27T05:19:05.133Z,0.22
2018-12-27T05:20:05.481Z,0.16
2018-12-27T05:21:05.155Z,0.18
2018-12-27T05:22:05.163Z,0.2
2018-12-27T05:23:05.397Z,0.22
2018-12-27T05:24:05.134Z,0.15
2018-12-27T05:25:05.614Z,0.15
2018-12-27T05:26:05.129Z,0.16
2018-12-27T05:27:05.444Z,0.18
2018-12-27T05:28:05.191Z,0.16
2018-12-27T05:29:05.453Z,0.03
2018-12-27T05:30:05.408Z,-0.12
2018-12-27T05:31:05.317Z,-0.23
2018-12-27T05:32:05.317Z,-0.26
2018-12-27T05:33:05.193Z,-0.22
2018-12-27T05:34:05.164Z,-0.25
2018-12-27T05:35:05.220Z,-0.22
2018-12-27T05:36:05.131Z,-0.18
2018-12-27T05:37:05.628Z,-0.21
2018-12-27T05:38:05.602Z,-0.19
2018-12-27T05:39:05.474Z,-0.15
2018-12-27T05:40:05.454Z,-0.15
2018-12-27T05:41:05.127Z,-0.11
2018-12-27T05:42:05.219Z,-0.11
2018-12-27T05:43:05.430Z,-0.08
2018-12-27T05:44:05.406Z,-0.04
2018-12-27T05:45:05.704Z,-0.04
2018-12-27T05:46:05.186Z,-0.01
2018-12-27T05:47:05.548Z,-0.01
2018-12-27T05:48:05.141Z,0.01
2018-12-27T05:49:05.361Z,0.02
2018-12-27T05:50:05.302Z,0.02
2018-12-27T05:51:05.146Z,0.05
2018-12-27T05:52:05.153Z,0.06
2018-12-27T05:53:05.074Z,0.08
2018-12-27T05:54:05.167Z,0.09
2018-12-27T05:55:05.214Z,0.09
2018-12-27T05:56:05.314Z,0.09
2018-12-27T05:57:05.334Z,0.06
2018-12-27T05:58:05.208Z,0.09
2018-12-27T05:59:05.072Z,0.09
2018-12-27T06:00:05.219Z,0.06
2018-12-27T06:01:05.431Z,0.06
2018-12-27T06:02:05.070Z,0.1
2018-12-27T06:03:05.587Z,0.09
2018-12-27T06:04:05.434Z,0.09
2018-12-27T06:05:05.459Z,0.09
2018-12-27T06:06:05.193Z,0.12
2018-12-27T06:07:05.304Z,0.1
2018-12-27T06:08:05.125Z,0.09
2018-12-27T06:09:05.225Z,0.08
2018-12-27T06:10:05.022Z,0.05
2018-12-27T06:11:05.260Z,0.09
2018-12-27T06:12:05.060Z,0.09
2018-12-27T06:13:05.168Z,0.1
2018-12-27T06:14:05.219Z,0.1
2018-12-27T06:15:05.072Z,0.09
2018-12-27T06:16:05.432Z,0.06
2018-12-27T06:17:05.296Z,0.06
2018-12-27T06:18:05.242Z,0.08
2018-12-27T06:19:05.250Z,0.08
2018-12-27T06:20:05.012Z,0.09
2018-12-27T06:21:05.006Z,0.06
2018-12-27T06:22:05.030Z,0.01
2018-12-27T06:23:05.334Z,0.02
2018-12-27T06:24:05.180Z,0.06
2018-12-27T06:25:05.188Z,0.1
2018-12-27T06:26:05.082Z,0.09
2018-12-27T06:27:05.310Z,0.12
2018-12-27T06:28:05.005Z,0.13
2018-12-27T06:29:05.511Z,0.13
2018-12-27T06:30:05.126Z,0.16
2018-12-27T06:31:05.493Z,0.15
2018-12-27T06:32:05.244Z,0.16
2018-12-27T06:33:05.334Z,0.15
2018-12-27T06:34:05.212Z,0.18
2018-12-27T06:35:05.290Z,0.16
2018-12-27T06:36:05.117Z,0.16
2018-12-27T06:37:05.414Z,0.15
2018-12-27T06:38:05.035Z,0.15
2018-12-27T06:39:05.035Z,0.12
2018-12-27T06:40:05.075Z,0.13
2018-12-27T06:41:05.093Z,0.13
2018-12-27T06:42:05.105Z,0.15
2018-12-27T06:43:05.063Z,0.15
2018-12-27T06:44:05.286Z,0.16
2018-12-27T06:45:05.163Z,0.15
2018-12-27T06:46:05.317Z,0.16
2018-12-27T06:47:05.037Z,0.1
2018-12-27T06:48:05.286Z,0.12
2018-12-27T06:49:05.132Z,0.13
2018-12-27T06:50:05.053Z,0.16
2018-12-27T06:51:05.162Z,0.15
2018-12-27T06:52:05.131Z,0.18
2018-12-27T06:53:05.364Z,0.13
2018-12-27T06:54:05.186Z,0.16
2018-12-27T06:55:05.026Z,0.2
2018-12-27T06:56:05.202Z,0.19
2018-12-27T06:57:05.368Z,0.22
2018-12-27T06:58:05.025Z,0.23
2018-12-27T06:59:05.133Z,0.22
2018-12-27T07:00:05.585Z,0.23
2018-12-27T07:01:05.486Z,0.23
2018-12-27T07:02:05.854Z,0.23
2018-12-27T07:03:04.983Z,0.23
2018-12-27T07:04:05.355Z,0.26
2018-12-27T07:05:05.223Z,0.23
2018-12-27T07:06:05.156Z,0.25
2018-12-27T07:07:05.391Z,0.23
2018-12-27T07:08:04.975Z,0.25
2018-12-27T07:09:05.212Z,0.22
2018-12-27T07:10:05.822Z,0.22
2018-12-27T07:11:05.296Z,0.22
2018-12-27T07:12:05.779Z,0.23
2018-12-27T07:13:05.331Z,0.22
2018-12-27T07:14:05.387Z,0.18
2018-12-27T07:15:04.942Z,0.18
2018-12-27T07:16:05.194Z,0.18
2018-12-27T07:17:05.201Z,0.18
2018-12-27T07:18:05.127Z,0.15
2018-12-27T07:19:04.980Z,0.16
2018-12-27T07:20:05.143Z,0.12
2018-12-27T07:21:05.796Z,0.13
2018-12-27T07:22:05.242Z,0.13
2018-12-27T07:23:05.415Z,0.1
2018-12-27T07:24:05.243Z,0.1
2018-12-27T07:25:05.002Z,0.1
2018-12-27T07:26:05.507Z,0.1
2018-12-27T07:27:05.261Z,0.06
2018-12-27T07:28:05.178Z,0.06
2018-12-27T07:29:05.508Z,0.08
2018-12-27T07:30:05.141Z,0.08
2018-12-27T07:31:05.186Z,0.05
2018-12-27T07:32:04.955Z,0.05
2018-12-27T07:33:05.236Z,0.06
2018-12-27T07:34:05.113Z,0.06
2018-12-27T07:35:05.296Z,0.03
2018-12-27T07:36:05.128Z,0.08
2018-12-27T07:37:05.773Z,0.1
2018-12-27T07:38:05.270Z,0.08
2018-12-27T07:39:05.139Z,0.09
2018-12-27T07:40:05.486Z,0.1
2018-12-27T07:41:04.896Z,0.1
2018-12-27T07:42:05.242Z,0.12
2018-12-27T07:43:05.741Z,0.12
2018-12-27T07:44:05.295Z,0.13
2018-12-27T07:45:05.010Z,0.13
2018-12-27T07:46:11.290Z,0.13
2018-12-27T07:47:05.867Z,0.12
2018-12-27T07:48:04.913Z,0.13
2018-12-27T07:49:05.357Z,0.15
2018-12-27T07:50:04.955Z,0.1
2018-12-27T07:51:05.022Z,0.1
2018-12-27T07:52:05.219Z,0.09
2018-12-27T07:53:05.034Z,0.12
2018-12-27T07:54:05.450Z,0.13
2018-12-27T07:55:04.903Z,0.1
2018-12-27T07:56:05.163Z,0.09
2018-12-27T07:57:05.003Z,0.12
2018-12-27T07:58:05.178Z,0.12
2018-12-27T07:59:05.281Z,0.13
2018-12-27T08:00:05.037Z,0.12
2018-12-27T08:01:05.253Z,0.13
2018-12-27T08:02:05.166Z,0.1
2018-12-27T08:03:04.931Z,0.08
2018-12-27T08:04:04.988Z,0.09
2018-12-27T08:05:05.148Z,0.12
2018-12-27T08:06:05.205Z,0.1
2018-12-27T08:07:05.106Z,0.08
2018-12-27T08:08:05.327Z,0.08
2018-12-27T08:09:05.289Z,0.02
2018-12-27T08:10:05.207Z,0.03
2018-12-27T08:11:05.259Z,0.03
2018-12-27T08:12:04.866Z,0.06
2018-12-27T08:13:05.346Z,0.06
2018-12-27T08:14:04.883Z,0.05
2018-12-27T08:15:05.686Z,0.05
2018-12-27T08:16:04.857Z,0.05
2018-12-27T08:17:04.867Z,0.06
2018-12-27T08:18:05.331Z,0.08
2018-12-27T08:19:04.952Z,0.08
2018-12-27T08:20:05.171Z,0.1
2018-12-27T08:21:05.020Z,0.1
2018-12-27T08:22:05.092Z,0.08
2018-12-27T08:23:05.015Z,0.08
2018-12-27T08:24:05.078Z,0.09
2018-12-27T08:25:05.035Z,0.12
2018-12-27T08:26:04.845Z,0.15
2018-12-27T08:27:05.075Z,0.15
2018-12-27T08:28:05.005Z,0.15
2018-12-27T08:29:04.910Z,0.16
2018-12-27T08:30:04.986Z,0.15
2018-12-27T08:31:04.889Z,0.15
2018-12-27T08:32:05.044Z,0.15
2018-12-27T08:33:04.889Z,0.18
2018-12-27T08:34:05.032Z,0.19
2018-12-27T08:35:11.893Z,0.19
2018-12-27T08:36:05.035Z,0.2
2018-12-27T08:37:05.006Z,0.2
2018-12-27T08:38:05.019Z,0.16
2018-12-27T08:39:05.161Z,0.19
2018-12-27T08:40:04.827Z,0.2
2018-12-27T08:41:05.005Z,0.18
2018-12-27T08:42:05.701Z,0.16
2018-12-27T08:43:04.979Z,0.18
2018-12-27T08:44:05.048Z,0.2
2018-12-27T08:45:05.060Z,0.22
2018-12-27T08:46:04.957Z,0.25
2018-12-27T08:47:05.229Z,0.25
2018-12-27T08:48:05.186Z,0.29
2018-12-27T08:49:05.059Z,0.3
2018-12-27T08:50:04.954Z,0.3
2018-12-27T08:51:05.007Z,0.34
2018-12-27T08:52:04.928Z,0.33
2018-12-27T08:53:04.810Z,0.37
2018-12-27T08:54:05.136Z,0.37
2018-12-27T08:55:04.856Z,0.38
2018-12-27T08:56:04.984Z,0.38
2018-12-27T08:57:04.992Z,0.38
2018-12-27T08:58:05.049Z,0.36
2018-12-27T08:59:05.062Z,0.37
2018-12-27T09:00:04.907Z,0.36
2018-12-27T09:01:05.081Z,0.34
2018-12-27T09:02:04.869Z,0.33
2018-12-27T09:03:05.203Z,0.33
2018-12-27T09:04:04.834Z,0.33
2018-12-27T09:05:05.059Z,0.32
2018-12-27T09:06:04.786Z,0.36
2018-12-27T09:07:04.939Z,0.36
2018-12-27T09:08:04.834Z,0.38
2018-12-27T09:09:05.024Z,0.4
2018-12-27T09:10:05.009Z,0.38
2018-12-27T09:11:04.814Z,0.37
2018-12-27T09:12:05.184Z,0.41
2018-12-27T09:13:05.115Z,0.38
2018-12-27T09:14:05.005Z,0.43
2018-12-27T09:15:05.190Z,0.41
2018-12-27T09:16:04.801Z,0.43
2018-12-27T09:17:04.999Z,0.43
2018-12-27T09:18:04.839Z,0.34
2018-12-27T09:19:05.000Z,0.34
2018-12-27T09:20:05.135Z,0.37
2018-12-27T09:21:05.002Z,0.36
2018-12-27T09:22:04.813Z,0.37
2018-12-27T09:23:04.765Z,0.37
2018-12-27T09:24:05.287Z,0.38
2018-12-27T09:25:05.055Z,0.43
2018-12-27T09:26:04.940Z,0.43
2018-12-27T09:27:04.962Z,0.43
2018-12-27T09:28:04.803Z,0.46
2018-12-27T09:29:05.034Z,0.47
2018-12-27T09:30:05.072Z,0.5
2018-12-27T09:31:04.858Z,0.53
2018-12-27T09:32:05.054Z,0.54
2018-12-27T09:33:04.769Z,0.54
2018-12-27T09:34:04.753Z,0.54
2018-12-27T09:35:05.013Z,0.57
2018-12-27T09:36:04.790Z,0.58
2018-12-27T09:37:04.988Z,0.57
2018-12-27T09:38:04.926Z,0.58
2018-12-27T09:39:04.910Z,0.58
2018-12-27T09:40:04.864Z,0.57
2018-12-27T09:41:06.039Z,0.58
2018-12-27T09:42:04.815Z,0.57
2018-12-27T09:43:04.811Z,0.57
2018-12-27T09:44:04.829Z,0.6
2018-12-27T09:45:04.718Z,0.61
2018-12-27T09:46:04.961Z,0.58
2018-12-27T09:47:04.767Z,0.6
2018-12-27T09:48:05.018Z,0.6
2018-12-27T09:49:05.002Z,0.53
2018-12-27T09:50:04.800Z,0.57
2018-12-27T09:51:05.248Z,0.57
2018-12-27T09:52:05.007Z,0.57
2018-12-27T09:53:05.009Z,0.54
2018-12-27T09:54:05.108Z,0.55
2018-12-27T09:55:05.095Z,0.5
2018-12-27T09:56:05.293Z,0.54
2018-12-27T09:57:04.778Z,0.55
2018-12-27T09:58:04.984Z,0.57
2018-12-27T09:59:05.024Z,0.6
2018-12-27T10:00:04.737Z,0.55
2018-12-27T10:01:08.002Z,0.55
2018-12-27T10:02:04.726Z,0.55
2018-12-27T10:03:05.422Z,0.58
2018-12-27T10:04:04.732Z,0.57
2018-12-27T10:05:05.130Z,0.6
2018-12-27T10:06:04.820Z,0.65
2018-12-27T10:07:05.010Z,0.68
2018-12-27T10:08:05.851Z,0.67
2018-12-27T10:09:04.778Z,0.69
2018-12-27T10:10:04.873Z,0.74
2018-12-27T10:11:04.767Z,0.68
2018-12-27T10:12:04.746Z,0.61
2018-12-27T10:13:04.766Z,0.64
2018-12-27T10:14:04.746Z,0.65
2018-12-27T10:15:05.104Z,0.64
2018-12-27T10:16:04.928Z,0.67
2018-12-27T10:17:04.751Z,0.68
2018-12-27T10:18:07.789Z,0.69
2018-12-27T10:19:04.785Z,0.71
2018-12-27T10:20:04.721Z,0.71
2018-12-27T10:21:05.033Z,0.69
2018-12-27T10:22:04.846Z,0.72
2018-12-27T10:23:05.436Z,0.71
2018-12-27T10:24:05.075Z,0.74
2018-12-27T10:25:04.803Z,0.74
2018-12-27T10:26:04.743Z,0.74
2018-12-27T10:27:05.507Z,0.76
2018-12-27T10:28:04.704Z,0.75
2018-12-27T10:29:04.790Z,0.76
2018-12-27T10:30:05.082Z,0.78
2018-12-27T10:31:04.802Z,0.82
2018-12-27T10:32:04.939Z,0.82
2018-12-27T10:33:04.891Z,0.81
2018-12-27T10:34:05.755Z,0.79
2018-12-27T10:35:04.731Z,0.79
2018-12-27T10:36:04.811Z,0.81
2018-12-27T10:37:08.213Z,0.83
2018-12-27T10:38:05.784Z,0.81
2018-12-27T10:39:05.773Z,0.81
2018-12-27T10:40:05.487Z,0.82
2018-12-27T10:41:04.916Z,0.79
2018-12-27T10:42:04.880Z,0.81
2018-12-27T10:43:05.475Z,0.82
2018-12-27T10:44:04.695Z,0.82
2018-12-27T10:45:04.769Z,0.82
2018-12-27T10:46:05.497Z,0.83
2018-12-27T10:47:04.959Z,0.83
2018-12-27T10:48:05.942Z,0.81
2018-12-27T10:49:04.771Z,0.83
2018-12-27T10:50:04.683Z,0.85
2018-12-27T10:51:04.695Z,0.86
2018-12-27T10:52:04.671Z,0.85
2018-12-27T10:53:04.644Z,0.78
2018-12-27T10:54:04.785Z,0.82
2018-12-27T10:55:04.724Z,0.85
2018-12-27T10:56:05.089Z,0.86
2018-12-27T10:57:04.657Z,0.81
2018-12-27T10:58:04.789Z,0.78
2018-12-27T10:59:04.674Z,0.78
2018-12-27T11:00:04.674Z,0.76
2018-12-27T11:01:04.690Z,0.76
2018-12-27T11:02:04.689Z,0.76
2018-12-27T11:03:04.802Z,0.76
2018-12-27T11:04:04.726Z,0.81
2018-12-27T11:05:04.683Z,0.81
2018-12-27T11:06:04.772Z,0.83
2018-12-27T11:07:04.637Z,0.85
2018-12-27T11:08:04.677Z,0.89
2018-12-27T11:09:04.656Z,0.92
2018-12-27T11:10:04.637Z,0.91
2018-12-27T11:11:04.729Z,0.93
2018-12-27T11:12:04.823Z,0.92
2018-12-27T11:13:04.848Z,0.93
2018-12-27T11:14:04.796Z,0.93
2018-12-27T11:15:04.946Z,0.93
2018-12-27T11:16:04.679Z,0.95
2018-12-27T11:17:04.664Z,0.93
2018-12-27T11:18:04.759Z,0.98
2018-12-27T11:19:04.887Z,0.99
2018-12-27T11:20:04.641Z,0.86
2018-12-27T11:21:04.591Z,0.85
2018-12-27T11:22:04.867Z,0.81
2018-12-27T11:23:04.626Z,0.83
2018-12-27T11:24:04.650Z,0.74
2018-12-27T11:25:04.602Z,0.71
2018-12-27T11:26:04.773Z,0.75
2018-12-27T11:27:04.763Z,0.78
2018-12-27T11:28:04.579Z,0.79
2018-12-27T11:29:04.736Z,0.81
2018-12-27T11:30:04.642Z,0.82
2018-12-27T11:31:04.719Z,0.82
2018-12-27T11:32:04.963Z,0.83
2018-12-27T11:33:04.866Z,0.88
2018-12-27T11:34:04.567Z,0.88
2018-12-27T11:35:04.626Z,0.86
2018-12-27T11:36:05.273Z,0.86
2018-12-27T11:37:06.256Z,0.85
2018-12-27T11:38:04.728Z,0.86
2018-12-27T11:39:04.969Z,0.86
2018-12-27T11:40:04.972Z,0.91
2018-12-27T11:41:04.978Z,0.93
2018-12-27T11:42:05.098Z,0.96
2018-12-27T11:43:04.891Z,0.96
2018-12-27T11:44:04.686Z,0.92
2018-12-27T11:45:04.766Z,0.91
2018-12-27T11:46:04.830Z,0.92
2018-12-27T11:47:04.812Z,0.92
2018-12-27T11:48:04.867Z,0.92
2018-12-27T11:49:04.580Z,0.95
2018-12-27T11:50:04.699Z,0.93
2018-12-27T11:51:04.846Z,0.98
2018-12-27T11:52:04.786Z,0.98
2018-12-27T11:53:04.527Z,0.99
2018-12-27T11:54:04.969Z,1
2018-12-27T11:55:04.644Z,1.03
2018-12-27T11:56:04.592Z,1.04
2018-12-27T11:57:04.672Z,1.03
2018-12-27T11:58:04.762Z,1.04
2018-12-27T11:59:04.664Z,1.03
2018-12-27T12:00:04.680Z,1.04
2018-12-27T12:01:04.605Z,1.03
2018-12-27T12:02:04.686Z,1.07
2018-12-27T12:03:04.979Z,1.04
2018-12-27T12:04:04.829Z,1.03
2018-12-27T12:05:04.587Z,1.02
2018-12-27T12:06:05.007Z,1.07
2018-12-27T12:07:04.602Z,1.07
2018-12-27T12:08:04.784Z,1.07
2018-12-27T12:09:04.618Z,1
2018-12-27T12:10:04.777Z,1.03
2018-12-27T12:11:04.634Z,1.02
2018-12-27T12:12:04.793Z,1.06
2018-12-27T12:13:04.618Z,1.04
2018-12-27T12:14:04.938Z,1.06
2018-12-27T12:15:04.860Z,1.04
2018-12-27T12:16:04.807Z,1.07
2018-12-27T12:17:05.219Z,1.09
2018-12-27T12:18:04.745Z,1.1
2018-12-27T12:19:04.554Z,1.07
2018-12-27T12:20:04.744Z,1.09
2018-12-27T12:21:04.716Z,1.06
2018-12-27T12:22:04.542Z,1.06
2018-12-27T12:23:04.730Z,1.06
2018-12-27T12:24:04.764Z,1.03
2018-12-27T12:25:04.608Z,1.04
2018-12-27T12:26:04.620Z,1.04
2018-12-27T12:27:04.647Z,1.02
2018-12-27T12:28:04.952Z,1.06
2018-12-27T12:29:04.901Z,1.02
2018-12-27T12:30:04.627Z,0.99
2018-12-27T12:31:05.026Z,0.95
2018-12-27T12:32:04.672Z,0.96
2018-12-27T12:33:04.655Z,0.95
2018-12-27T12:34:04.892Z,0.96
2018-12-27T12:35:04.636Z,0.96
2018-12-27T12:36:11.188Z,0.98
2018-12-27T12:37:04.525Z,0.98
2018-12-27T12:38:04.511Z,0.98
2018-12-27T12:39:04.523Z,0.95
2018-12-27T12:40:04.548Z,0.89
2018-12-27T12:41:04.608Z,0.85
2018-12-27T12:42:04.690Z,0.89
2018-12-27T12:43:04.589Z,0.86
2018-12-27T12:44:04.624Z,0.88
2018-12-27T12:45:04.640Z,0.85
2018-12-27T12:46:04.555Z,0.89
2018-12-27T12:47:04.498Z,0.89
2018-12-27T12:48:04.516Z,0.92
2018-12-27T12:49:04.549Z,0.93
2018-12-27T12:50:04.519Z,0.93
2018-12-27T12:51:04.497Z,0.95
2018-12-27T12:52:04.597Z,0.96
2018-12-27T12:53:04.510Z,0.96
2018-12-27T12:54:04.907Z,0.98
2018-12-27T12:55:04.651Z,1.02
2018-12-27T12:56:05.138Z,1
2018-12-27T12:57:04.489Z,0.98
2018-12-27T12:58:04.488Z,0.92
2018-12-27T12:59:04.519Z,0.96
2018-12-27T13:00:04.899Z,0.82
2018-12-27T13:01:04.712Z,0.82
2018-12-27T13:02:04.928Z,0.82
2018-12-27T13:03:04.938Z,0.85
2018-12-27T13:04:04.532Z,0.83
2018-12-27T13:05:04.749Z,0.83
2018-12-27T13:06:04.943Z,0.85
2018-12-27T13:07:05.029Z,0.89
2018-12-27T13:08:04.965Z,0.91
2018-12-27T13:09:05.012Z,0.89
2018-12-27T13:10:04.744Z,0.89
2018-12-27T13:11:04.521Z,0.88
2018-12-27T13:12:05.270Z,0.85
2018-12-27T13:13:05.292Z,0.92
2018-12-27T13:14:04.453Z,0.91
2018-12-27T13:15:04.643Z,0.85
2018-12-27T13:16:04.753Z,0.89
2018-12-27T13:17:04.512Z,0.91
2018-12-27T13:18:04.525Z,0.91
2018-12-27T13:19:04.766Z,0.91